createdAt,value
2019-04-25T00:00:44.106Z,98904.61
2019-04-25T00:03:17.807Z,98920.14
2019-04-25T00:05:50.395Z,98919.21
2019-04-25T00:08:23.408Z,98914.26
2019-04-25T00:10:56.564Z,98917.28
2019-04-25T00:13:29.815Z,98904.88
2019-04-25T00:16:03.387Z,98901.02
2019-04-25T00:18:38.521Z,98889.38
2019-04-25T00:21:27.154Z,98886.71
2019-04-25T00:24:05.319Z,98883.07
2019-04-25T00:26:44.440Z,98888.76
2019-04-25T00:29:18.774Z,98888.75
2019-04-25T00:31:51.348Z,98888.28
2019-04-25T00:34:23.993Z,98878.78
2019-04-25T00:36:57.179Z,98878.88
2019-04-25T00:39:31.811Z,98864.98
2019-04-25T00:42:05.855Z,98854.50
2019-04-25T00:44:38.438Z,98856.39
2019-04-25T00:47:11.856Z,98856.90
2019-04-25T00:49:45.185Z,98856.81
2019-04-25T00:52:18.558Z,98864.11
2019-04-25T00:54:52.617Z,98867.91
2019-04-25T00:57:27.967Z,98866.28
2019-04-25T01:00:26.647Z,98862.42
2019-04-25T01:03:03.290Z,98864.16
2019-04-25T01:05:36.124Z,98870.44
2019-04-25T01:08:10.081Z,98872.05
2019-04-25T01:10:44.408Z,98871.97
2019-04-25T01:13:17.117Z,98875.05
2019-04-25T01:15:54.769Z,98876.59
2019-04-25T01:18:37.846Z,98873.28
2019-04-25T01:21:12.072Z,98886.45
2019-04-25T01:23:47.332Z,98888.78
2019-04-25T01:26:23.977Z,98891.52
2019-04-25T01:28:59.135Z,98894.93
2019-04-25T01:31:39.373Z,98895.48
2019-04-25T01:34:31.193Z,98904.33
2019-04-25T01:37:14.163Z,98909.70
2019-04-25T01:40:08.618Z,98919.66
2019-04-25T01:43:10.528Z,98917.95
2019-04-25T01:45:44.145Z,98915.02
2019-04-25T01:48:16.742Z,98921.30
2019-04-25T01:50:50.599Z,98927.37
2019-04-25T01:53:30.275Z,98925.36
2019-04-25T01:56:07.584Z,98918.05
2019-04-25T01:58:43.831Z,98925.38
2019-04-25T02:01:16.651Z,98914.83
2019-04-25T02:03:50.419Z,98916.78
2019-04-25T02:06:24.857Z,98915.52
2019-04-25T02:08:59.529Z,98911.91
2019-04-25T02:11:52.450Z,98912.20
2019-04-25T02:14:38.079Z,98910.55
2019-04-25T02:17:11.655Z,98914.66
2019-04-25T02:19:44.350Z,98910.97
2019-04-25T02:22:16.965Z,98924.16
2019-04-25T02:24:50.176Z,98919.57
2019-04-25T02:27:24.292Z,98923.81
2019-04-25T02:29:57.260Z,98930.98
2019-04-25T02:32:31.339Z,98926.92
2019-04-25T02:35:09.149Z,98948.13
2019-04-25T02:37:44.863Z,98945.34
2019-04-25T02:40:23.816Z,98942.89
2019-04-25T02:42:58.515Z,98934.35
2019-04-25T02:45:38.566Z,98939.88
2019-04-25T02:49:00.950Z,98947.36
2019-04-25T02:51:45.462Z,98950.91
2019-04-25T02:54:18.217Z,98953.25
2019-04-25T02:56:50.691Z,98969.25
2019-04-25T02:59:25.337Z,98971.09
2019-04-25T03:01:59.268Z,98965.59
2019-04-25T03:04:33.904Z,98966.41
2019-04-25T03:07:10.666Z,98962.27
2019-04-25T03:09:45.087Z,98962.89
2019-04-25T03:12:29.180Z,98958.27
2019-04-25T03:15:09.985Z,98948.91
2019-04-25T03:17:46.103Z,98947.77
2019-04-25T03:20:36.347Z,98949.00
2019-04-25T03:23:35.418Z,98947.89
2019-04-25T03:26:09.108Z,98946.39
2019-04-25T03:28:44.555Z,98947.16
2019-04-25T03:31:22.636Z,98951.02
2019-04-25T03:33:58.883Z,98949.78
2019-04-25T03:36:31.781Z,98946.59
2019-04-25T03:39:06.678Z,98948.28
2019-04-25T03:41:39.156Z,98954.27
2019-04-25T03:44:14.587Z,98953.19
2019-04-25T03:46:47.146Z,98952.50
2019-04-25T03:49:19.684Z,98960.89
2019-04-25T03:51:53.860Z,98956.59
2019-04-25T03:54:26.551Z,98955.94
2019-04-25T03:57:04.675Z,98946.97
2019-04-25T03:59:39.132Z,98950.79
2019-04-25T04:02:13.492Z,98958.37
2019-04-25T04:04:48.424Z,98954.28
2019-04-25T04:07:20.998Z,98954.63
2019-04-25T04:09:55.079Z,98950.27
2019-04-25T04:12:27.698Z,98950.34
2019-04-25T04:15:00.565Z,98958.44
2019-04-25T04:17:45.411Z,98952.47
2019-04-25T04:20:28.388Z,98960.22
2019-04-25T04:23:11.275Z,98956.11
2019-04-25T04:25:44.317Z,98961.81
2019-04-25T04:28:17.175Z,98953.63
2019-04-25T04:30:49.799Z,98953.39
2019-04-25T04:33:30.219Z,98948.39
2019-04-25T04:36:05.605Z,98953.91
2019-04-25T04:38:38.198Z,98950.56
2019-04-25T04:41:11.561Z,98964.09
2019-04-25T04:43:44.203Z,98965.59
2019-04-25T04:46:18.575Z,98967.00
2019-04-25T04:48:54.101Z,98961.14
2019-04-25T04:51:30.098Z,98966.72
2019-04-25T04:54:03.472Z,98975.37
2019-04-25T04:56:37.458Z,98978.56
2019-04-25T04:59:10.949Z,98977.34
2019-04-25T05:01:49.202Z,98972.79
2019-04-25T05:04:33.437Z,98981.88
2019-04-25T05:07:36.350Z,98974.89
2019-04-25T05:10:09.206Z,98977.89
2019-04-25T05:12:43.761Z,98989.30
2019-04-25T05:15:16.940Z,98999.62
2019-04-25T05:17:50.779Z,98989.77
2019-04-25T05:20:24.250Z,98986.36
2019-04-25T05:22:57.802Z,98983.17
2019-04-25T05:25:30.512Z,98986.94
2019-04-25T05:28:05.324Z,98971.92
2019-04-25T05:30:47.359Z,98972.17
2019-04-25T05:33:21.560Z,98976.72
2019-04-25T05:35:57.158Z,98975.95
2019-04-25T05:38:34.120Z,98973.92
2019-04-25T05:41:24.140Z,98964.01
2019-04-25T05:43:58.078Z,98963.41
2019-04-25T05:46:34.146Z,98961.33
2019-04-25T05:49:06.782Z,98960.83
2019-04-25T05:51:39.274Z,98969.02
2019-04-25T05:54:12.025Z,98974.14
2019-04-25T05:56:44.634Z,98959.64
2019-04-25T05:59:17.937Z,98978.00
2019-04-25T06:01:50.647Z,98978.03
2019-04-25T06:04:25.066Z,98973.03
2019-04-25T06:06:59.963Z,98981.07
2019-04-25T06:09:54.512Z,98991.24
2019-04-25T06:12:47.954Z,98976.86
2019-04-25T06:15:26.172Z,98977.28
2019-04-25T06:18:19.739Z,98983.77
2019-04-25T06:20:55.409Z,98988.88
2019-04-25T06:23:34.121Z,98999.83
2019-04-25T06:26:19.032Z,98992.83
2019-04-25T06:29:20.515Z,98997.60
2019-04-25T06:32:04.185Z,99012.67
2019-04-25T06:34:41.691Z,99004.42
2019-04-25T06:37:16.038Z,99006.23
2019-04-25T06:39:48.946Z,98984.59
2019-04-25T06:42:21.396Z,99004.03
2019-04-25T06:45:13.619Z,98992.35
2019-04-25T06:47:57.760Z,99010.28
2019-04-25T06:50:30.323Z,99007.45
2019-04-25T06:53:05.140Z,99009.44
2019-04-25T06:55:39.587Z,99015.05
2019-04-25T06:58:14.639Z,99021.05
2019-04-25T07:00:58.097Z,99024.17
2019-04-25T07:03:35.304Z,99022.64
2019-04-25T07:06:09.641Z,99030.50
2019-04-25T07:08:48.350Z,99038.77
2019-04-25T07:11:21.022Z,99048.45
2019-04-25T07:13:55.043Z,99047.56
2019-04-25T07:16:27.819Z,99045.75
2019-04-25T07:19:04.432Z,99057.25
2019-04-25T07:21:44.370Z,99056.13
2019-04-25T07:24:18.028Z,99064.70
2019-04-25T07:27:16.217Z,99073.59
2019-04-25T13:51:07.023Z,98962.72
2019-04-25T13:53:43.666Z,98956.81
2019-04-25T13:56:23.176Z,98951.95
2019-04-25T13:58:59.013Z,98948.86
2019-04-25T14:01:35.000Z,98954.56
2019-04-25T14:04:08.516Z,98944.36
2019-04-25T14:06:42.597Z,98943.58
2019-04-25T14:09:17.715Z,98940.66
2019-04-25T14:11:51.196Z,98943.77
2019-04-25T14:14:26.580Z,98942.88
2019-04-25T14:17:24.771Z,98935.66
2019-04-25T14:20:21.736Z,98940.28
2019-04-25T14:23:08.832Z,98932.27
2019-04-25T14:25:46.982Z,98927.09
2019-04-25T14:28:24.934Z,98929.81
2019-04-25T14:31:01.828Z,98917.34
2019-04-25T14:33:35.676Z,98922.50
2019-04-25T14:36:10.702Z,98927.49
2019-04-25T14:38:45.187Z,98926.02
2019-04-25T14:41:18.930Z,98919.85
2019-04-25T14:43:52.550Z,98923.09
2019-04-25T14:46:26.429Z,98927.66
2019-04-25T14:49:00.502Z,98930.97
2019-04-25T14:51:33.647Z,98934.23
2019-04-25T14:54:18.279Z,98942.34
2019-04-25T14:57:03.396Z,98934.20
2019-04-25T14:59:37.540Z,98937.42
2019-04-25T15:02:11.174Z,98934.98
2019-04-25T15:04:44.844Z,98933.36
2019-04-25T15:07:17.644Z,98938.03
2019-04-25T15:09:53.978Z,98943.91
2019-04-25T15:12:26.926Z,98945.92
2019-04-25T15:14:59.777Z,98943.91
2019-04-25T15:17:45.407Z,98939.02
2019-04-25T15:20:19.791Z,98938.10
2019-04-25T15:22:57.573Z,98939.47
2019-04-25T15:25:32.887Z,98942.34
2019-04-25T15:28:12.032Z,98934.98
2019-04-25T15:30:46.386Z,98932.61
2019-04-25T15:33:19.805Z,98933.03
2019-04-25T15:36:08.808Z,98936.83
2019-04-25T15:38:52.439Z,98934.39
2019-04-25T15:41:34.732Z,98928.80
2019-04-25T15:44:27.925Z,98919.45
2019-04-25T15:47:05.721Z,98916.91
2019-04-25T15:49:39.285Z,98917.76
2019-04-25T15:52:15.263Z,98922.34
2019-04-25T15:54:49.518Z,98923.81
2019-04-25T15:57:25.460Z,98928.52
2019-04-25T15:59:58.722Z,98926.69
2019-04-25T16:02:35.491Z,98922.48
2019-04-25T16:05:09.564Z,98930.73
2019-04-25T16:07:48.664Z,98932.92
2019-04-25T16:10:24.926Z,98937.66
2019-04-25T16:13:01.333Z,98941.05
2019-04-25T16:15:34.027Z,98942.36
2019-04-25T16:18:13.631Z,98942.38
2019-04-25T16:20:47.793Z,98944.38
2019-04-25T16:23:20.781Z,98943.88
2019-04-25T16:25:53.795Z,98948.02
2019-04-25T16:28:29.521Z,98945.89
2019-04-25T16:31:05.126Z,98940.05
2019-04-25T16:33:40.711Z,98941.73
2019-04-25T16:36:19.870Z,98947.72
2019-04-25T16:38:56.127Z,98943.00
2019-04-25T16:41:31.523Z,98946.38
2019-04-25T16:44:13.582Z,98952.80
2019-04-25T16:46:46.235Z,98950.34
2019-04-25T16:49:19.782Z,98946.36
2019-04-25T16:51:54.275Z,98962.19
2019-04-25T16:54:31.539Z,98974.22
2019-04-25T16:57:05.002Z,98984.30
2019-04-25T16:59:38.800Z,99000.36
2019-04-25T17:02:12.963Z,99011.25
2019-04-25T17:04:45.887Z,99028.22
2019-04-25T17:07:20.243Z,99025.16
2019-04-25T17:09:56.836Z,99022.40
2019-04-25T17:12:34.359Z,99039.82
2019-04-25T17:15:30.503Z,99030.69
2019-04-25T17:18:14.745Z,99037.81
2019-04-25T17:20:58.963Z,99030.69
2019-04-25T17:23:34.482Z,99037.98
2019-04-25T17:26:08.560Z,99036.08
2019-04-25T17:28:46.052Z,99043.84
2019-04-25T17:31:25.603Z,99045.53
2019-04-25T17:34:18.644Z,99059.53
2019-04-25T17:37:19.174Z,99071.32
2019-04-25T17:40:11.893Z,99080.52
2019-04-25T17:42:46.731Z,99072.77
2019-04-25T17:45:28.451Z,99066.30
2019-04-25T17:48:04.421Z,99049.92
2019-04-25T17:50:37.531Z,99057.59
2019-04-25T17:53:14.005Z,99062.47
2019-04-25T17:55:47.316Z,99064.05
2019-04-25T17:58:20.961Z,99071.46
2019-04-25T18:00:55.718Z,99070.23
2019-04-25T18:03:31.399Z,99063.31
2019-04-25T18:06:07.689Z,99052.37
2019-04-25T18:08:46.867Z,99070.52
2019-04-25T18:11:22.986Z,99078.13
2019-04-25T18:13:55.702Z,99079.44
2019-04-25T18:16:40.354Z,99078.63
2019-04-25T18:19:35.102Z,99088.25
2019-04-25T18:22:35.280Z,99097.48
2019-04-25T18:25:41.428Z,99116.60
2019-04-25T18:28:23.896Z,99116.58
2019-04-25T18:31:00.604Z,99126.34
2019-04-25T18:33:33.167Z,99123.94
2019-04-25T18:36:19.595Z,99130.78
2019-04-25T18:39:07.951Z,99148.20
2019-04-25T18:41:46.820Z,99149.67
2019-04-25T18:44:22.058Z,99155.84
2019-04-25T18:46:58.200Z,99163.98
2019-04-25T18:49:37.209Z,99156.64
2019-04-25T18:52:48.791Z,99164.09
2019-04-25T18:55:33.407Z,99173.31
2019-04-25T18:58:36.541Z,99179.48
2019-04-25T19:01:25.949Z,99189.38
2019-04-25T19:04:21.845Z,99197.42
2019-04-25T19:07:21.925Z,99195.77
2019-04-25T19:09:57.085Z,99238.70
2019-04-25T19:12:31.366Z,99237.05
2019-04-25T19:15:05.856Z,99214.63
2019-04-25T19:17:41.338Z,99233.02
2019-04-25T19:20:15.792Z,99251.97
2019-04-25T19:22:49.037Z,99239.30
2019-04-25T19:25:40.136Z,99258.59
2019-04-25T19:28:16.065Z,99262.25
2019-04-25T19:30:51.651Z,99249.69
2019-04-25T19:33:35.469Z,99252.38
2019-04-25T19:36:09.187Z,99262.56
2019-04-25T19:38:41.996Z,99256.86
2019-04-25T19:41:26.200Z,99264.17
2019-04-25T19:44:04.492Z,99269.43
2019-04-25T19:46:49.263Z,99254.63
2019-04-25T19:49:23.344Z,99269.36
2019-04-25T19:51:56.475Z,99276.35
2019-04-25T19:54:31.918Z,99273.95
2019-04-25T19:57:05.426Z,99265.97
2019-04-25T19:59:40.690Z,99266.26
2019-04-25T20:02:29.313Z,99277.17
2019-04-25T20:05:12.744Z,99277.43
2019-04-25T20:07:53.442Z,99273.83
2019-04-25T20:10:40.732Z,99279.75
2019-04-25T20:13:26.501Z,99287.88
2019-04-25T20:16:01.210Z,99268.59
2019-04-25T20:18:33.975Z,99262.20
2019-04-25T20:21:10.247Z,99266.92
2019-04-25T20:23:46.343Z,99272.08
2019-04-25T20:26:20.665Z,99283.61
2019-04-25T20:28:59.253Z,99289.01
2019-04-25T20:31:33.970Z,99285.34
2019-04-25T20:34:09.375Z,99270.37
2019-04-25T20:36:43.356Z,99285.75
2019-04-25T20:39:15.822Z,99271.16
2019-04-25T20:41:49.752Z,99292.50
2019-04-25T20:44:25.387Z,99299.02
2019-04-25T20:46:58.693Z,99268.37
2019-04-25T20:49:31.350Z,99282.61
2019-04-25T20:52:05.898Z,99293.16
2019-04-25T20:54:39.722Z,99297.47
2019-04-25T20:57:12.326Z,99305.67
2019-04-25T20:59:48.072Z,99303.23
2019-04-25T21:02:25.228Z,99318.47
2019-04-25T21:04:59.500Z,99307.92
2019-04-25T21:07:33.424Z,99302.31
2019-04-25T21:10:06.554Z,99287.00
2019-04-25T21:12:50.217Z,99286.96
2019-04-25T21:15:36.579Z,99276.66
2019-04-25T21:18:17.555Z,99279.52
2019-04-25T21:20:50.668Z,99275.43
2019-04-25T21:23:25.382Z,99265.30
2019-04-25T21:26:01.250Z,99265.25
2019-04-25T21:28:35.368Z,99264.36
2019-04-25T21:31:08.275Z,99270.54
2019-04-25T21:33:45.747Z,99273.62
2019-04-25T21:36:25.367Z,99284.40
2019-04-25T21:39:02.158Z,99282.50
2019-04-25T21:41:53.655Z,99271.88
2019-04-25T21:44:27.791Z,99263.16
2019-04-25T21:47:01.453Z,99262.45
2019-04-25T21:49:35.094Z,99277.91
2019-04-25T21:52:08.459Z,99291.14
2019-04-25T21:54:48.684Z,99289.88
2019-04-25T21:57:21.539Z,99295.62
2019-04-25T22:00:03.149Z,99312.65
2019-04-25T22:02:42.436Z,99308.03
2019-04-25T22:05:16.390Z,99316.16
2019-04-25T22:07:49.538Z,99326.72
2019-04-25T22:10:24.456Z,99328.91
2019-04-25T22:13:11.270Z,99330.03
2019-04-25T22:15:52.679Z,99330.22
2019-04-25T22:18:25.651Z,99334.33
2019-04-25T22:20:58.558Z,99314.72
2019-04-25T22:23:31.451Z,99310.91
2019-04-25T22:26:13.700Z,99307.49
2019-04-25T22:28:46.917Z,99316.16
2019-04-25T22:31:27.087Z,99315.36
2019-04-25T22:34:05.806Z,99324.03
2019-04-25T22:36:38.795Z,99306.75
2019-04-25T22:39:11.646Z,99292.89
2019-04-25T22:41:47.201Z,99289.45
2019-04-25T22:44:22.755Z,99280.66
2019-04-25T22:46:55.916Z,99283.56
2019-04-25T22:49:29.082Z,99284.47
2019-04-25T22:52:03.114Z,99269.19
2019-04-25T22:54:37.508Z,99278.61
2019-04-25T22:57:15.261Z,99268.66
2019-04-25T22:59:48.151Z,99257.80
2019-04-25T23:02:42.644Z,99262.92
2019-04-25T23:05:19.458Z,99257.62
2019-04-25T23:07:52.873Z,99256.48
2019-04-25T23:10:25.897Z,99256.16
2019-04-25T23:12:58.534Z,99253.34
2019-04-25T23:15:31.123Z,99231.09
2019-04-25T23:18:05.372Z,99216.19
2019-04-25T23:20:38.665Z,99226.93
2019-04-25T23:23:11.775Z,99224.22
2019-04-25T23:25:50.471Z,99234.71
2019-04-25T23:28:25.701Z,99254.97
2019-04-25T23:31:10.486Z,99254.85
2019-04-25T23:33:43.413Z,99253.83
2019-04-25T23:36:16.433Z,99266.22
2019-04-25T23:38:51.727Z,99260.12
2019-04-25T23:41:24.423Z,99265.62
2019-04-25T23:43:57.087Z,99267.85
2019-04-25T23:46:30.115Z,99266.89
2019-04-25T23:49:03.531Z,99272.80
2019-04-25T23:51:36.169Z,99280.17
2019-04-25T23:54:09.562Z,99287.39
2019-04-25T23:56:42.149Z,99291.47
2019-04-25T23:59:15.703Z,99302.12
